sensor_id;sensor_type;location;lat;lon;timestamp;P1;durP1;ratioP1;P2;durP2;ratioP2
18748;SDS011;9503;53.560;10.246;2023-03-03T07:02:33;65.37;;;16.77;;
18748;SDS011;9503;53.560;10.246;2023-03-03T07:04:59;46.87;;;15.00;;
18748;SDS011;9503;53.560;10.246;2023-03-03T07:07:26;66.97;;;16.93;;
18748;SDS011;9503;53.560;10.246;2023-03-03T07:09:54;118.83;;;20.83;;
18748;SDS011;9503;53.560;10.246;2023-03-03T07:12:22;84.40;;;18.23;;
18748;SDS011;9503;53.560;10.246;2023-03-03T07:14:51;45.63;;;15.57;;
18748;SDS011;9503;53.560;10.246;2023-03-03T07:17:22;67.87;;;18.13;;
18748;SDS011;9503;53.560;10.246;2023-03-03T07:19:51;47.43;;;15.83;;
18748;SDS011;9503;53.560;10.246;2023-03-03T07:22:19;94.57;;;18.10;;
18748;SDS011;9503;53.560;10.246;2023-03-03T07:24:47;69.77;;;17.93;;
18748;SDS011;9503;53.560;10.246;2023-03-03T07:27:16;60.83;;;16.03;;
18748;SDS011;9503;53.560;10.246;2023-03-03T07:29:48;47.37;;;15.87;;
18748;SDS011;9503;53.560;10.246;2023-03-03T07:32:25;47.10;;;15.77;;
18748;SDS011;9503;53.560;10.246;2023-03-03T07:34:55;53.23;;;15.70;;
18748;SDS011;9503;53.560;10.246;2023-03-03T07:37:26;99.93;;;19.63;;
18748;SDS011;9503;53.560;10.246;2023-03-03T07:39:56;59.13;;;15.93;;
18748;SDS011;9503;53.560;10.246;2023-03-03T07:42:24;36.60;;;15.37;;
18748;SDS011;9503;53.560;10.246;2023-03-03T07:44:53;66.23;;;17.53;;
18748;SDS011;9503;53.560;10.246;2023-03-03T07:47:22;62.73;;;16.83;;
18748;SDS011;9503;53.560;10.246;2023-03-03T07:49:50;53.40;;;17.03;;
18748;SDS011;9503;53.560;10.246;2023-03-03T07:52:22;41.63;;;16.77;;
18748;SDS011;9503;53.560;10.246;2023-03-03T07:54:51;61.13;;;16.33;;
18748;SDS011;9503;53.560;10.246;2023-03-03T07:57:20;43.40;;;15.63;;
18748;SDS011;9503;53.560;10.246;2023-03-03T07:59:50;49.53;;;16.00;;
18748;SDS011;9503;53.560;10.246;2023-03-03T08:02:36;38.20;;;15.77;;
18748;SDS011;9503;53.560;10.246;2023-03-03T08:05:28;45.80;;;15.17;;
18748;SDS011;9503;53.560;10.246;2023-03-03T08:08:01;40.53;;;15.60;;
18748;SDS011;9503;53.560;10.246;2023-03-03T08:10:40;57.90;;;17.40;;
18748;SDS011;9503;53.560;10.246;2023-03-03T08:13:16;42.10;;;15.47;;
18748;SDS011;9503;53.560;10.246;2023-03-03T08:15:44;64.03;;;19.17;;
18748;SDS011;9503;53.560;10.246;2023-03-03T08:18:15;42.07;;;15.67;;
18748;SDS011;9503;53.560;10.246;2023-03-03T08:20:47;44.47;;;16.00;;
18748;SDS011;9503;53.560;10.246;2023-03-03T08:23:16;42.40;;;15.80;;
18748;SDS011;9503;53.560;10.246;2023-03-03T08:25:44;65.03;;;18.10;;
18748;SDS011;9503;53.560;10.246;2023-03-03T08:28:12;57.70;;;15.77;;
18748;SDS011;9503;53.560;10.246;2023-03-03T08:30:39;61.93;;;16.90;;
18748;SDS011;9503;53.560;10.246;2023-03-03T08:33:06;58.60;;;16.27;;
18748;SDS011;9503;53.560;10.246;2023-03-03T08:35:33;37.93;;;15.60;;
18748;SDS011;9503;53.560;10.246;2023-03-03T08:37:59;105.60;;;21.30;;
18748;SDS011;9503;53.560;10.246;2023-03-03T08:40:27;77.23;;;20.27;;
18748;SDS011;9503;53.560;10.246;2023-03-03T08:42:54;54.23;;;19.07;;
18748;SDS011;9503;53.560;10.246;2023-03-03T08:45:22;66.07;;;19.57;;
18748;SDS011;9503;53.560;10.246;2023-03-03T08:47:49;53.17;;;19.40;;
18748;SDS011;9503;53.560;10.246;2023-03-03T08:50:16;77.33;;;20.70;;
18748;SDS011;9503;53.560;10.246;2023-03-03T08:52:43;64.77;;;19.57;;
18748;SDS011;9503;53.560;10.246;2023-03-03T08:55:10;64.27;;;19.47;;
18748;SDS011;9503;53.560;10.246;2023-03-03T08:57:38;92.77;;;22.00;;
18748;SDS011;9503;53.560;10.246;2023-03-03T09:00:06;84.70;;;19.67;;
18748;SDS011;9503;53.560;10.246;2023-03-03T09:02:34;58.40;;;16.80;;
18748;SDS011;9503;53.560;10.246;2023-03-03T09:05:02;67.73;;;17.73;;
18748;SDS011;9503;53.560;10.246;2023-03-03T09:07:29;66.23;;;17.53;;
18748;SDS011;9503;53.560;10.246;2023-03-03T09:09:55;58.83;;;19.17;;
18748;SDS011;9503;53.560;10.246;2023-03-03T09:12:24;63.03;;;18.40;;
18748;SDS011;9503;53.560;10.246;2023-03-03T09:14:57;100.73;;;22.20;;
18748;SDS011;9503;53.560;10.246;2023-03-03T09:17:26;55.97;;;18.67;;
18748;SDS011;9503;53.560;10.246;2023-03-03T09:19:58;53.10;;;18.27;;
18748;SDS011;9503;53.560;10.246;2023-03-03T09:22:28;48.00;;;17.40;;
18748;SDS011;9503;53.560;10.246;2023-03-03T09:25:01;66.47;;;20.13;;
18748;SDS011;9503;53.560;10.246;2023-03-03T09:27:28;56.50;;;19.53;;
18748;SDS011;9503;53.560;10.246;2023-03-03T09:29:57;52.00;;;19.63;;
18748;SDS011;9503;53.560;10.246;2023-03-03T09:32:30;60.03;;;21.60;;
18748;SDS011;9503;53.560;10.246;2023-03-03T09:35:00;66.40;;;21.53;;
18748;SDS011;9503;53.560;10.246;2023-03-03T09:38:01;66.27;;;21.97;;
18748;SDS011;9503;53.560;10.246;2023-03-03T09:40:46;51.90;;;20.10;;
18748;SDS011;9503;53.560;10.246;2023-03-03T09:43:23;65.07;;;23.77;;
18748;SDS011;9503;53.560;10.246;2023-03-03T09:46:02;54.00;;;22.20;;
18748;SDS011;9503;53.560;10.246;2023-03-03T09:48:39;48.47;;;19.27;;
18748;SDS011;9503;53.560;10.246;2023-03-03T09:51:20;47.47;;;19.60;;
18748;SDS011;9503;53.560;10.246;2023-03-03T09:54:03;42.37;;;18.67;;
18748;SDS011;9503;53.560;10.246;2023-03-03T09:56:43;44.13;;;18.90;;
18748;SDS011;9503;53.560;10.246;2023-03-03T09:59:18;66.80;;;22.67;;
18748;SDS011;9503;53.560;10.246;2023-03-03T10:01:57;65.80;;;25.43;;
18748;SDS011;9503;53.560;10.246;2023-03-03T10:04:47;70.43;;;25.00;;
18748;SDS011;9503;53.560;10.246;2023-03-03T10:07:26;74.57;;;26.00;;
18748;SDS011;9503;53.560;10.246;2023-03-03T10:10:13;81.97;;;26.63;;
18748;SDS011;9503;53.560;10.246;2023-03-03T10:12:47;78.57;;;28.03;;
18748;SDS011;9503;53.560;10.246;2023-03-03T10:15:29;68.10;;;25.57;;
18748;SDS011;9503;53.560;10.246;2023-03-03T10:18:10;70.40;;;24.90;;
18748;SDS011;9503;53.560;10.246;2023-03-03T10:20:44;60.43;;;23.73;;
18748;SDS011;9503;53.560;10.246;2023-03-03T10:23:19;72.53;;;24.43;;
18748;SDS011;9503;53.560;10.246;2023-03-03T10:25:52;60.67;;;23.10;;
18748;SDS011;9503;53.560;10.246;2023-03-03T10:28:35;65.60;;;21.87;;
18748;SDS011;9503;53.560;10.246;2023-03-03T10:31:22;69.57;;;24.03;;
18748;SDS011;9503;53.560;10.246;2023-03-03T10:34:03;77.27;;;23.23;;
18748;SDS011;9503;53.560;10.246;2023-03-03T10:36:43;55.10;;;21.33;;
18748;SDS011;9503;53.560;10.246;2023-03-03T10:39:30;61.87;;;21.83;;
18748;SDS011;9503;53.560;10.246;2023-03-03T10:45:05;55.93;;;20.30;;
18748;SDS011;9503;53.560;10.246;2023-03-03T10:47:53;55.27;;;21.87;;
18748;SDS011;9503;53.560;10.246;2023-03-03T10:50:35;62.10;;;21.90;;
18748;SDS011;9503;53.560;10.246;2023-03-03T10:53:15;59.43;;;22.43;;
18748;SDS011;9503;53.560;10.246;2023-03-03T10:55:51;63.03;;;24.07;;
18748;SDS011;9503;53.560;10.246;2023-03-03T10:58:34;65.03;;;25.97;;
18748;SDS011;9503;53.560;10.246;2023-03-03T11:01:12;67.60;;;25.47;;
18748;SDS011;9503;53.560;10.246;2023-03-03T11:04:00;65.87;;;25.07;;
18748;SDS011;9503;53.560;10.246;2023-03-03T11:06:44;40.97;;;16.70;;
18748;SDS011;9503;53.560;10.246;2023-03-03T11:09:27;48.30;;;18.80;;
18748;SDS011;9503;53.560;10.246;2023-03-03T11:12:07;35.07;;;14.23;;
18748;SDS011;9503;53.560;10.246;2023-03-03T11:14:46;32.13;;;14.57;;
18748;SDS011;9503;53.560;10.246;2023-03-03T11:17:19;35.23;;;14.27;;
18748;SDS011;9503;53.560;10.246;2023-03-03T11:19:56;34.10;;;14.53;;
18748;SDS011;9503;53.560;10.246;2023-03-03T11:22:35;42.83;;;16.70;;
18748;SDS011;9503;53.560;10.246;2023-03-03T11:25:11;37.30;;;14.57;;
18748;SDS011;9503;53.560;10.246;2023-03-03T11:27:54;26.50;;;11.10;;
18748;SDS011;9503;53.560;10.246;2023-03-03T11:30:33;25.37;;;11.50;;
18748;SDS011;9503;53.560;10.246;2023-03-03T11:33:11;28.13;;;12.87;;
18748;SDS011;9503;53.560;10.246;2023-03-03T11:35:44;36.03;;;12.13;;
18748;SDS011;9503;53.560;10.246;2023-03-03T11:38:21;30.03;;;13.50;;
18748;SDS011;9503;53.560;10.246;2023-03-03T11:40:58;32.63;;;14.70;;
18748;SDS011;9503;53.560;10.246;2023-03-03T11:43:29;33.03;;;13.77;;
18748;SDS011;9503;53.560;10.246;2023-03-03T11:46:02;35.57;;;15.47;;
18748;SDS011;9503;53.560;10.246;2023-03-03T11:48:37;34.17;;;15.53;;
18748;SDS011;9503;53.560;10.246;2023-03-03T11:51:11;41.93;;;18.57;;
18748;SDS011;9503;53.560;10.246;2023-03-03T11:53:48;42.83;;;19.53;;
18748;SDS011;9503;53.560;10.246;2023-03-03T11:56:23;43.30;;;18.97;;
18748;SDS011;9503;53.560;10.246;2023-03-03T11:58:59;44.70;;;20.67;;
18748;SDS011;9503;53.560;10.246;2023-03-03T12:01:35;42.20;;;19.27;;
18748;SDS011;9503;53.560;10.246;2023-03-03T12:04:06;39.30;;;18.67;;
18748;SDS011;9503;53.560;10.246;2023-03-03T12:06:40;42.67;;;18.63;;
18748;SDS011;9503;53.560;10.246;2023-03-03T12:09:25;41.07;;;19.63;;
18748;SDS011;9503;53.560;10.246;2023-03-03T12:12:03;45.30;;;19.47;;
18748;SDS011;9503;53.560;10.246;2023-03-03T12:14:39;42.47;;;18.80;;
18748;SDS011;9503;53.560;10.246;2023-03-03T12:17:33;39.63;;;18.27;;
18748;SDS011;9503;53.560;10.246;2023-03-03T12:20:13;37.50;;;16.83;;
18748;SDS011;9503;53.560;10.246;2023-03-03T12:22:48;35.73;;;16.80;;
18748;SDS011;9503;53.560;10.246;2023-03-03T12:25:31;40.83;;;18.07;;
18748;SDS011;9503;53.560;10.246;2023-03-03T12:28:04;32.17;;;18.40;;
18748;SDS011;9503;53.560;10.246;2023-03-03T12:36:34;24.43;;;14.53;;
18748;SDS011;9503;53.560;10.246;2023-03-03T12:39:11;26.50;;;14.07;;
18748;SDS011;9503;53.560;10.246;2023-03-03T12:41:48;27.47;;;13.10;;
18748;SDS011;9503;53.560;10.246;2023-03-03T12:44:23;29.00;;;13.67;;
18748;SDS011;9503;53.560;10.246;2023-03-03T12:46:57;26.97;;;12.97;;
18748;SDS011;9503;53.560;10.246;2023-03-03T12:49:29;21.30;;;12.43;;
18748;SDS011;9503;53.560;10.246;2023-03-03T12:52:07;22.57;;;11.87;;
18748;SDS011;9503;53.560;10.246;2023-03-03T12:54:48;21.90;;;11.70;;
18748;SDS011;9503;53.560;10.246;2023-03-03T12:57:30;22.60;;;11.80;;
18748;SDS011;9503;53.560;10.246;2023-03-03T13:02:58;23.53;;;11.20;;
18748;SDS011;9503;53.560;10.246;2023-03-03T13:05:32;18.33;;;11.47;;
18748;SDS011;9503;53.560;10.246;2023-03-03T13:10:58;19.97;;;10.20;;
18748;SDS011;9503;53.560;10.246;2023-03-03T13:13:34;18.03;;;8.37;;
18748;SDS011;9503;53.560;10.246;2023-03-03T13:16:08;18.63;;;8.13;;
18748;SDS011;9503;53.560;10.246;2023-03-03T13:18:41;20.17;;;8.77;;
18748;SDS011;9503;53.560;10.246;2023-03-03T13:21:17;18.40;;;7.23;;
18748;SDS011;9503;53.560;10.246;2023-03-03T13:26:25;12.80;;;6.93;;
18748;SDS011;9503;53.560;10.246;2023-03-03T13:28:59;16.77;;;7.30;;
18748;SDS011;9503;53.560;10.246;2023-03-03T13:31:35;16.43;;;6.33;;
18748;SDS011;9503;53.560;10.246;2023-03-03T13:34:07;18.47;;;7.43;;
18748;SDS011;9503;53.560;10.246;2023-03-03T13:36:41;16.73;;;6.20;;
18748;SDS011;9503;53.560;10.246;2023-03-03T13:39:17;16.13;;;6.47;;
18748;SDS011;9503;53.560;10.246;2023-03-03T13:41:48;12.53;;;5.83;;
18748;SDS011;9503;53.560;10.246;2023-03-03T13:44:23;11.70;;;4.57;;
18748;SDS011;9503;53.560;10.246;2023-03-03T13:46:56;14.47;;;5.20;;
18748;SDS011;9503;53.560;10.246;2023-03-03T13:49:44;9.97;;;3.93;;
18748;SDS011;9503;53.560;10.246;2023-03-03T13:52:20;8.50;;;3.90;;
18748;SDS011;9503;53.560;10.246;2023-03-03T13:54:50;5.23;;;3.30;;
18748;SDS011;9503;53.560;10.246;2023-03-03T13:57:36;6.43;;;3.47;;
18748;SDS011;9503;53.560;10.246;2023-03-03T14:00:15;6.53;;;3.70;;
18748;SDS011;9503;53.560;10.246;2023-03-03T14:02:56;5.63;;;3.40;;
18748;SDS011;9503;53.560;10.246;2023-03-03T14:05:34;6.37;;;2.93;;
18748;SDS011;9503;53.560;10.246;2023-03-03T14:08:05;7.33;;;3.17;;
18748;SDS011;9503;53.560;10.246;2023-03-03T14:10:40;8.73;;;3.10;;
18748;SDS011;9503;53.560;10.246;2023-03-03T14:13:13;6.30;;;2.40;;
18748;SDS011;9503;53.560;10.246;2023-03-03T14:15:51;7.30;;;2.70;;
18748;SDS011;9503;53.560;10.246;2023-03-03T14:18:24;5.13;;;2.27;;
18748;SDS011;9503;53.560;10.246;2023-03-03T14:20:57;2.87;;;1.97;;
18748;SDS011;9503;53.560;10.246;2023-03-03T14:23:30;3.70;;;1.80;;
18748;SDS011;9503;53.560;10.246;2023-03-03T14:26:04;4.07;;;1.90;;
18748;SDS011;9503;53.560;10.246;2023-03-03T14:28:37;4.33;;;1.80;;
18748;SDS011;9503;53.560;10.246;2023-03-03T14:31:13;4.60;;;1.90;;
18748;SDS011;9503;53.560;10.246;2023-03-03T14:33:42;12.50;;;2.33;;
18748;SDS011;9503;53.560;10.246;2023-03-03T14:36:24;7.57;;;2.97;;
18748;SDS011;9503;53.560;10.246;2023-03-03T14:38:52;2.90;;;1.80;;
18748;SDS011;9503;53.560;10.246;2023-03-03T14:41:20;5.43;;;1.57;;
18748;SDS011;9503;53.560;10.246;2023-03-03T14:43:59;4.53;;;2.07;;
18748;SDS011;9503;53.560;10.246;2023-03-03T14:46:38;4.93;;;1.97;;
18748;SDS011;9503;53.560;10.246;2023-03-03T14:49:10;5.90;;;1.77;;
18748;SDS011;9503;53.560;10.246;2023-03-03T14:51:41;5.40;;;1.83;;
18748;SDS011;9503;53.560;10.246;2023-03-03T14:54:15;3.93;;;1.63;;
18748;SDS011;9503;53.560;10.246;2023-03-03T14:56:57;3.13;;;1.63;;
18748;SDS011;9503;53.560;10.246;2023-03-03T14:59:25;5.10;;;1.53;;
18748;SDS011;9503;53.560;10.246;2023-03-03T15:01:59;6.47;;;1.80;;
18748;SDS011;9503;53.560;10.246;2023-03-03T15:04:46;5.13;;;1.70;;
18748;SDS011;9503;53.560;10.246;2023-03-03T15:07:18;3.47;;;1.70;;
18748;SDS011;9503;53.560;10.246;2023-03-03T15:09:56;5.90;;;1.43;;
18748;SDS011;9503;53.560;10.246;2023-03-03T15:12:24;3.40;;;1.50;;
18748;SDS011;9503;53.560;10.246;2023-03-03T15:14:52;7.53;;;1.70;;
18748;SDS011;9503;53.560;10.246;2023-03-03T15:17:34;2.87;;;1.40;;
18748;SDS011;9503;53.560;10.246;2023-03-03T15:22:59;7.50;;;2.63;;
18748;SDS011;9503;53.560;10.246;2023-03-03T15:25:38;4.47;;;1.90;;
18748;SDS011;9503;53.560;10.246;2023-03-03T15:28:17;4.30;;;1.83;;
18748;SDS011;9503;53.560;10.246;2023-03-03T15:30:57;5.90;;;2.07;;
18748;SDS011;9503;53.560;10.246;2023-03-03T15:33:31;2.63;;;1.40;;
18748;SDS011;9503;53.560;10.246;2023-03-03T15:36:06;5.20;;;1.33;;
18748;SDS011;9503;53.560;10.246;2023-03-03T15:38:45;3.20;;;1.50;;
18748;SDS011;9503;53.560;10.246;2023-03-03T15:41:21;4.73;;;2.27;;
18748;SDS011;9503;53.560;10.246;2023-03-03T15:43:59;8.00;;;1.73;;
18748;SDS011;9503;53.560;10.246;2023-03-03T15:46:42;4.00;;;1.50;;
18748;SDS011;9503;53.560;10.246;2023-03-03T15:49:25;6.20;;;2.07;;
18748;SDS011;9503;53.560;10.246;2023-03-03T15:52:09;6.37;;;2.13;;
18748;SDS011;9503;53.560;10.246;2023-03-03T15:54:51;7.60;;;2.17;;
18748;SDS011;9503;53.560;10.246;2023-03-03T15:57:32;6.13;;;2.13;;
18748;SDS011;9503;53.560;10.246;2023-03-03T16:00:15;7.47;;;2.10;;
18748;SDS011;9503;53.560;10.246;2023-03-03T16:02:57;8.40;;;2.10;;
18748;SDS011;9503;53.560;10.246;2023-03-03T16:05:29;8.20;;;2.07;;
18748;SDS011;9503;53.560;10.246;2023-03-03T16:07:59;18.97;;;2.37;;
18748;SDS011;9503;53.560;10.246;2023-03-03T16:10:31;10.10;;;2.30;;
18748;SDS011;9503;53.560;10.246;2023-03-03T16:13:13;4.60;;;2.00;;
18748;SDS011;9503;53.560;10.246;2023-03-03T16:15:49;7.93;;;2.40;;
18748;SDS011;9503;53.560;10.246;2023-03-03T16:18:26;8.23;;;2.27;;
18748;SDS011;9503;53.560;10.246;2023-03-03T16:21:09;9.17;;;2.37;;
18748;SDS011;9503;53.560;10.246;2023-03-03T16:23:45;5.63;;;2.20;;
18748;SDS011;9503;53.560;10.246;2023-03-03T16:26:25;8.03;;;2.70;;
18748;SDS011;9503;53.560;10.246;2023-03-03T16:29:04;9.37;;;2.37;;
18748;SDS011;9503;53.560;10.246;2023-03-03T16:31:41;10.10;;;2.23;;
18748;SDS011;9503;53.560;10.246;2023-03-03T16:34:12;11.03;;;2.60;;
18748;SDS011;9503;53.560;10.246;2023-03-03T16:36:53;14.20;;;2.90;;
18748;SDS011;9503;53.560;10.246;2023-03-03T16:39:32;11.67;;;2.87;;
18748;SDS011;9503;53.560;10.246;2023-03-03T16:42:08;9.27;;;2.53;;
18748;SDS011;9503;53.560;10.246;2023-03-03T16:44:46;16.73;;;2.97;;
18748;SDS011;9503;53.560;10.246;2023-03-03T16:47:25;10.67;;;2.87;;
18748;SDS011;9503;53.560;10.246;2023-03-03T16:50:02;8.83;;;2.60;;
18748;SDS011;9503;53.560;10.246;2023-03-03T16:52:42;14.20;;;2.73;;
18748;SDS011;9503;53.560;10.246;2023-03-03T16:55:13;13.17;;;3.20;;
18748;SDS011;9503;53.560;10.246;2023-03-03T16:57:48;14.60;;;3.40;;
18748;SDS011;9503;53.560;10.246;2023-03-03T17:00:25;15.37;;;2.80;;
18748;SDS011;9503;53.560;10.246;2023-03-03T17:02:57;15.33;;;3.33;;
18748;SDS011;9503;53.560;10.246;2023-03-03T17:05:37;10.67;;;2.83;;
18748;SDS011;9503;53.560;10.246;2023-03-03T17:11:15;10.50;;;3.03;;
18748;SDS011;9503;53.560;10.246;2023-03-03T17:13:55;9.83;;;2.87;;
18748;SDS011;9503;53.560;10.246;2023-03-03T17:16:34;15.63;;;3.10;;
18748;SDS011;9503;53.560;10.246;2023-03-03T17:19:12;13.90;;;2.90;;
18748;SDS011;9503;53.560;10.246;2023-03-03T17:21:52;11.80;;;3.03;;
18748;SDS011;9503;53.560;10.246;2023-03-03T17:24:30;17.07;;;3.50;;
18748;SDS011;9503;53.560;10.246;2023-03-03T17:27:06;14.87;;;3.20;;
18748;SDS011;9503;53.560;10.246;2023-03-03T17:29:53;18.37;;;4.80;;
18748;SDS011;9503;53.560;10.246;2023-03-03T17:32:31;19.77;;;4.20;;
18748;SDS011;9503;53.560;10.246;2023-03-03T17:35:14;17.53;;;3.87;;
18748;SDS011;9503;53.560;10.246;2023-03-03T17:38:02;14.43;;;3.17;;
18748;SDS011;9503;53.560;10.246;2023-03-03T17:40:51;22.67;;;5.50;;
18748;SDS011;9503;53.560;10.246;2023-03-03T17:43:27;15.10;;;3.20;;
18748;SDS011;9503;53.560;10.246;2023-03-03T17:46:01;19.20;;;4.83;;
18748;SDS011;9503;53.560;10.246;2023-03-03T17:48:55;23.07;;;4.90;;
18748;SDS011;9503;53.560;10.246;2023-03-03T17:51:50;20.13;;;4.93;;
18748;SDS011;9503;53.560;10.246;2023-03-03T17:54:42;19.63;;;4.27;;
18748;SDS011;9503;53.560;10.246;2023-03-03T17:57:33;15.87;;;3.17;;
